createdAt,value
2019-04-19T00:01:13.717Z,81.30
2019-04-19T00:03:41.889Z,81.30
2019-04-19T00:06:31.679Z,81.50
2019-04-19T00:09:14.342Z,81.50
2019-04-19T00:11:39.502Z,82.40
2019-04-19T00:14:00.263Z,82.00
2019-04-19T00:16:29.886Z,82.40
2019-04-19T00:19:21.139Z,82.60
2019-04-19T00:21:54.107Z,82.70
2019-04-19T00:24:01.638Z,82.80
2019-04-19T00:26:31.731Z,83.30
2019-04-19T00:29:05.265Z,83.00
2019-04-19T00:31:42.783Z,83.40
2019-04-19T00:34:02.657Z,83.50
2019-04-19T00:36:32.088Z,83.70
2019-04-19T00:39:24.543Z,83.90
2019-04-19T00:42:17.755Z,84.20
2019-04-19T00:44:53.701Z,84.50
2019-04-19T00:47:19.798Z,84.60
2019-04-19T00:49:47.529Z,84.70
2019-04-19T00:52:14.824Z,85.00
2019-04-19T00:54:46.346Z,85.50
2019-04-19T00:57:14.707Z,85.90
2019-04-19T00:59:39.495Z,86.00
2019-04-19T01:02:10.662Z,86.50
2019-04-19T01:04:38.506Z,86.50
2019-04-19T01:07:09.672Z,86.80
2019-04-19T01:09:49.872Z,87.30
2019-04-19T01:12:20.636Z,87.60
2019-04-19T01:14:47.725Z,87.90
2019-04-19T01:17:23.052Z,88.20
2019-04-19T01:19:46.907Z,88.90
2019-04-19T01:22:17.323Z,89.50
2019-04-19T01:24:45.252Z,90.50
2019-04-19T01:27:19.369Z,90.80
2019-04-19T01:29:48.269Z,91.10
2019-04-19T01:32:17.047Z,91.40
2019-04-19T01:34:46.735Z,91.60
2019-04-19T01:37:19.511Z,91.90
2019-04-19T01:40:05.909Z,92.20
2019-04-19T01:42:35.953Z,92.40
2019-04-19T01:45:09.942Z,92.70
2019-04-19T01:47:54.269Z,92.90
2019-04-19T01:50:36.800Z,93.10
2019-04-19T01:53:12.143Z,93.30
2019-04-19T01:55:23.635Z,93.50
2019-04-19T01:57:47.249Z,93.60
2019-04-19T02:00:24.440Z,93.60
2019-04-19T02:02:52.641Z,93.90
2019-04-19T02:05:19.527Z,94.30
2019-04-19T02:07:55.058Z,94.20
2019-04-19T02:11:03.823Z,95.00
2019-04-19T02:13:32.980Z,96.00
2019-04-19T02:15:57.431Z,95.80
2019-04-19T02:18:29.417Z,95.50
2019-04-19T02:20:58.090Z,95.00
2019-04-19T02:23:28.172Z,94.70
2019-04-19T02:26:03.618Z,94.10
2019-04-19T02:28:33.820Z,93.70
2019-04-19T02:31:20.804Z,93.60
2019-04-19T02:33:53.169Z,93.50
2019-04-19T02:36:41.594Z,93.40
2019-04-19T02:39:05.101Z,93.40
2019-04-19T02:41:34.066Z,93.40
2019-04-19T02:44:09.283Z,93.30
2019-04-19T02:46:33.482Z,93.40
2019-04-19T02:49:02.022Z,93.70
2019-04-19T02:51:29.718Z,93.70
2019-04-19T02:54:06.653Z,93.90
2019-04-19T02:56:53.948Z,94.20
2019-04-19T02:59:37.174Z,94.40
2019-04-19T03:02:38.339Z,94.80
2019-04-19T03:04:55.227Z,95.30
2019-04-19T03:06:51.824Z,95.50
2019-04-19T03:09:18.126Z,95.80
2019-04-19T03:12:00.884Z,96.20
2019-04-19T03:14:31.832Z,96.50
2019-04-19T03:17:07.230Z,96.90
2019-04-19T03:19:33.167Z,97.70
2019-04-19T03:22:01.114Z,98.10
2019-04-19T03:24:41.271Z,99.70
2019-04-19T03:27:00.076Z,99.90
2019-04-19T03:29:29.336Z,99.90
2019-04-19T03:34:56.377Z,99.90
2019-04-19T03:37:06.578Z,99.90
2019-04-19T03:39:49.001Z,99.90
2019-04-19T03:42:34.978Z,99.90
2019-04-19T03:45:02.944Z,99.90
2019-04-19T03:47:41.218Z,99.90
2019-04-19T03:50:05.842Z,99.90
2019-04-19T03:52:32.113Z,99.90
2019-04-19T03:55:07.946Z,99.90
2019-04-19T03:57:29.755Z,99.90
2019-04-19T03:59:46.213Z,99.90
2019-04-19T04:02:20.077Z,99.90
2019-04-19T04:04:53.717Z,99.90
2019-04-19T04:07:21.860Z,99.90
2019-04-19T04:09:59.178Z,99.90
2019-04-19T04:13:20.456Z,99.90
2019-04-19T04:16:05.672Z,99.90
2019-04-19T04:18:21.790Z,99.90
2019-04-19T04:20:54.559Z,99.90
2019-04-19T04:23:29.962Z,99.90
2019-04-19T04:26:01.178Z,99.90
2019-04-19T04:28:41.617Z,99.90
2019-04-19T04:31:05.791Z,99.90
2019-04-19T04:33:36.221Z,99.90
2019-04-19T04:36:21.179Z,99.90
2019-04-19T04:38:35.824Z,99.90
2019-04-19T04:41:05.815Z,99.90
2019-04-19T04:43:41.675Z,99.90
2019-04-19T04:46:29.373Z,99.90
2019-04-19T04:48:58.021Z,99.90
2019-04-19T04:51:34.677Z,99.90
2019-04-19T04:54:04.098Z,99.90
2019-04-19T04:56:48.607Z,99.90
2019-04-19T04:59:13.105Z,99.90
2019-04-19T05:01:49.228Z,99.90
2019-04-19T05:04:26.300Z,99.90
2019-04-19T05:06:57.923Z,99.90
2019-04-19T05:09:36.089Z,99.90
2019-04-19T05:12:11.014Z,99.90
2019-04-19T05:14:32.691Z,99.90
2019-04-19T05:17:13.898Z,99.90
2019-04-19T05:19:41.522Z,99.90
2019-04-19T05:22:01.518Z,99.90
2019-04-19T05:24:33.844Z,99.90
2019-04-19T05:27:10.403Z,99.90
2019-04-19T05:29:30.639Z,99.90
2019-04-19T05:31:54.736Z,99.90
2019-04-19T05:34:44.115Z,99.90
2019-04-19T05:37:08.052Z,99.90
2019-04-19T05:39:48.497Z,99.90
2019-04-19T05:42:21.406Z,99.90
2019-04-19T05:45:24.655Z,99.90
2019-04-19T05:47:30.602Z,99.90
2019-04-19T05:50:12.057Z,99.90
2019-04-19T05:52:39.875Z,99.30
2019-04-19T05:54:51.688Z,98.60
2019-04-19T05:57:39.980Z,97.90
2019-04-19T05:59:59.546Z,97.50
2019-04-19T06:02:28.378Z,97.50
2019-04-19T06:05:15.598Z,96.80
2019-04-19T06:07:39.059Z,96.70
2019-04-19T06:09:54.055Z,95.50
2019-04-19T06:12:28.033Z,95.10
2019-04-19T06:15:14.976Z,95.20
2019-04-19T06:17:52.114Z,94.60
2019-04-19T06:20:20.675Z,94.50
2019-04-19T06:22:53.453Z,94.00
2019-04-19T06:25:29.127Z,93.90
2019-04-19T06:28:11.759Z,93.80
2019-04-19T06:30:27.213Z,92.20
2019-04-19T06:32:56.183Z,91.60
2019-04-19T06:35:22.566Z,90.10
2019-04-19T06:37:40.472Z,90.00
2019-04-19T06:40:19.086Z,87.30
2019-04-19T06:42:50.712Z,88.00
2019-04-19T06:45:31.749Z,85.20
2019-04-19T06:47:50.747Z,84.50
2019-04-19T06:50:29.572Z,84.40
2019-04-19T06:52:53.243Z,81.70
2019-04-19T06:55:28.534Z,79.40
2019-04-19T06:58:06.710Z,78.50
2019-04-19T07:00:41.585Z,78.50
2019-04-19T07:02:58.514Z,77.50
2019-04-19T07:05:37.300Z,73.90
2019-04-19T07:08:40.083Z,76.20
2019-04-19T07:11:06.154Z,75.50
2019-04-19T07:13:14.056Z,77.60
2019-04-19T07:15:57.594Z,77.60
2019-04-19T07:18:17.795Z,76.80
2019-04-19T07:20:54.725Z,77.70
2019-04-19T07:23:21.201Z,78.10
2019-04-19T07:25:55.087Z,77.60
2019-04-19T07:28:09.791Z,80.30
2019-04-19T07:30:34.957Z,78.00
2019-04-19T07:33:09.390Z,76.30
2019-04-19T07:35:57.513Z,75.70
2019-04-19T07:38:43.081Z,74.50
2019-04-19T07:40:54.296Z,74.70
2019-04-19T07:43:25.185Z,75.40
2019-04-19T07:46:18.116Z,75.00
2019-04-19T07:48:47.762Z,74.30
2019-04-19T07:51:24.126Z,74.40
2019-04-19T07:53:50.836Z,73.70
2019-04-19T07:59:14.905Z,74.90
2019-04-19T08:01:58.021Z,73.50
2019-04-19T08:09:20.189Z,75.80
2019-04-19T08:11:58.719Z,75.60
2019-04-19T08:17:29.174Z,75.00
2019-04-19T08:29:12.144Z,72.20
2019-04-19T08:31:27.619Z,72.90
2019-04-19T08:33:56.692Z,74.10
2019-04-19T08:36:32.148Z,75.00
2019-04-19T08:39:19.029Z,75.20
2019-04-19T08:41:48.032Z,74.60
2019-04-19T08:44:16.396Z,74.10
2019-04-19T08:46:34.715Z,75.50
2019-04-19T08:49:22.859Z,74.40
2019-04-19T08:52:00.027Z,73.00
2019-04-19T08:54:47.446Z,72.80
2019-04-19T08:57:04.817Z,73.40
2019-04-19T08:59:51.579Z,76.60
2019-04-19T09:02:21.116Z,74.50
2019-04-19T09:04:52.358Z,72.20
2019-04-19T09:07:43.398Z,71.80
2019-04-19T09:10:10.959Z,72.10
2019-04-19T09:12:23.710Z,74.00
2019-04-19T09:14:52.026Z,73.50
2019-04-19T09:17:34.815Z,71.50
2019-04-19T09:20:07.399Z,70.80
2019-04-19T09:22:22.998Z,70.50
2019-04-19T09:24:47.869Z,71.80
2019-04-19T09:27:32.928Z,71.20
2019-04-19T09:29:59.248Z,71.70
2019-04-19T09:32:15.428Z,70.00
2019-04-19T09:34:47.095Z,69.60
2019-04-19T09:37:20.122Z,71.70
2019-04-19T09:39:52.345Z,69.60
2019-04-19T09:42:21.974Z,71.30
2019-04-19T09:44:48.094Z,70.00
2019-04-19T09:47:14.334Z,70.30
2019-04-19T09:49:59.634Z,69.30
2019-04-19T09:52:35.619Z,68.40
2019-04-19T09:55:11.353Z,68.60
2019-04-19T09:57:35.631Z,68.50
2019-04-19T09:59:47.595Z,68.80
2019-04-19T10:02:28.986Z,68.20
2019-04-19T10:04:53.328Z,69.20
2019-04-19T10:07:23.546Z,67.10
2019-04-19T10:09:57.082Z,67.00
2019-04-19T10:12:23.209Z,66.80
2019-04-19T10:14:53.513Z,68.20
2019-04-19T10:17:24.774Z,67.20
2019-04-19T10:19:55.038Z,66.80
2019-04-19T10:22:28.447Z,64.70
2019-04-19T10:24:58.803Z,64.50
2019-04-19T10:27:29.594Z,67.50
2019-04-19T10:29:59.824Z,68.50
2019-04-19T10:32:30.915Z,66.50
2019-04-19T10:35:02.031Z,65.60
2019-04-19T10:37:31.537Z,65.20
2019-04-19T10:40:02.016Z,64.70
2019-04-19T10:42:31.607Z,64.30
2019-04-19T10:45:00.694Z,64.40
2019-04-19T10:47:31.591Z,63.50
2019-04-19T10:50:14.223Z,63.50
2019-04-19T10:52:31.534Z,63.50
2019-04-19T10:55:00.501Z,62.40
2019-04-19T10:57:29.929Z,62.10
2019-04-19T11:00:00.924Z,63.70
2019-04-19T11:02:34.448Z,63.50
2019-04-19T11:05:07.249Z,63.60
2019-04-19T11:07:39.583Z,62.20
2019-04-19T11:10:07.490Z,62.90
2019-04-19T11:12:36.546Z,63.50
2019-04-19T11:15:06.678Z,61.30
2019-04-19T11:17:35.918Z,61.90
2019-04-19T11:20:21.586Z,61.00
2019-04-19T11:22:37.687Z,63.10
2019-04-19T11:25:08.017Z,64.00
2019-04-19T11:27:37.369Z,63.60
2019-04-19T11:30:15.060Z,62.40
2019-04-19T11:32:49.100Z,64.30
2019-04-19T11:35:19.248Z,63.30
2019-04-19T11:37:49.113Z,62.60
2019-04-19T11:40:19.579Z,62.50
2019-04-19T11:42:48.985Z,62.10
2019-04-19T11:45:18.185Z,61.10
2019-04-19T11:47:47.458Z,60.30
2019-04-19T11:50:17.841Z,61.80
2019-04-19T11:53:06.228Z,62.20
2019-04-19T11:55:38.189Z,62.90
2019-04-19T11:58:08.557Z,60.90
2019-04-19T12:01:00.154Z,60.80
2019-04-19T12:03:30.397Z,59.20
2019-04-19T12:06:00.298Z,59.90
2019-04-19T12:08:29.224Z,62.20
2019-04-19T12:10:58.091Z,58.70
2019-04-19T12:13:27.447Z,61.60
2019-04-19T12:15:58.909Z,58.70
2019-04-19T12:18:28.545Z,58.80
2019-04-19T12:20:57.541Z,59.30
2019-04-19T12:23:27.582Z,59.60
2019-04-19T12:25:57.504Z,61.90
2019-04-19T12:28:27.781Z,58.50
2019-04-19T12:30:58.632Z,59.00
2019-04-19T12:33:27.513Z,59.50
2019-04-19T12:35:57.399Z,58.70
2019-04-19T12:38:26.538Z,56.80
2019-04-19T12:40:58.416Z,56.60
2019-04-19T12:43:27.909Z,56.40
2019-04-19T12:45:57.237Z,58.20
2019-04-19T12:48:27.545Z,57.40
2019-04-19T12:50:58.202Z,55.80
2019-04-19T12:53:28.526Z,57.20
2019-04-19T12:55:59.958Z,55.20
2019-04-19T12:58:30.223Z,56.10
2019-04-19T13:01:18.265Z,54.90
2019-04-19T13:03:56.649Z,54.10
2019-04-19T13:06:27.491Z,53.40
2019-04-19T13:08:57.111Z,52.10
2019-04-19T13:11:27.242Z,52.90
2019-04-19T13:13:57.518Z,52.50
2019-04-19T13:16:26.695Z,54.60
2019-04-19T13:18:56.267Z,52.70
2019-04-19T13:21:26.203Z,51.70
2019-04-19T13:23:56.059Z,51.30
2019-04-19T13:26:25.283Z,51.70
2019-04-19T13:28:55.423Z,50.60
2019-04-19T13:31:24.998Z,52.20
2019-04-19T13:33:55.195Z,51.90
2019-04-19T13:36:34.300Z,49.80
2019-04-19T13:39:23.459Z,48.40
2019-04-19T13:42:12.710Z,50.20
2019-04-19T13:44:43.101Z,49.30
2019-04-19T13:47:12.964Z,50.40
2019-04-19T13:49:42.466Z,50.40
2019-04-19T13:52:12.638Z,48.60
2019-04-19T13:54:42.990Z,48.90
2019-04-19T13:57:13.278Z,49.80
2019-04-19T13:59:48.153Z,49.00
2019-04-19T14:02:14.521Z,48.10
2019-04-19T14:04:44.168Z,47.70
2019-04-19T14:07:13.244Z,48.20
2019-04-19T14:09:43.355Z,47.40
2019-04-19T14:12:13.367Z,48.00
2019-04-19T14:14:42.890Z,46.70
2019-04-19T14:17:11.838Z,47.00
2019-04-19T14:19:40.904Z,47.60
2019-04-19T14:22:11.046Z,48.20
2019-04-19T14:24:40.276Z,47.10
2019-04-19T14:27:09.409Z,45.50
2019-04-19T14:29:39.361Z,46.60
2019-04-19T14:32:09.350Z,47.20
2019-04-19T14:34:39.340Z,46.90
2019-04-19T14:37:11.083Z,46.00
2019-04-19T14:39:40.427Z,44.80
2019-04-19T14:42:09.654Z,45.30
2019-04-19T14:44:39.827Z,45.00
2019-04-19T14:47:08.826Z,44.90
2019-04-19T14:49:38.806Z,45.90
2019-04-19T14:52:07.897Z,44.90
2019-04-19T14:54:38.076Z,45.10
2019-04-19T14:57:07.330Z,45.20
2019-04-19T14:59:36.755Z,43.00
2019-04-19T15:02:24.878Z,44.70
2019-04-19T15:05:07.561Z,44.60
2019-04-19T15:07:36.636Z,43.40
2019-04-19T15:10:05.905Z,44.00
2019-04-19T15:12:36.468Z,45.80
2019-04-19T15:15:06.228Z,46.00
2019-04-19T15:17:35.362Z,46.30
2019-04-19T15:20:05.799Z,45.00
2019-04-19T15:22:34.776Z,43.30
2019-04-19T15:25:04.537Z,44.80
2019-04-19T15:27:34.813Z,43.30
2019-04-19T15:30:05.347Z,43.10
2019-04-19T15:32:34.492Z,43.00
2019-04-19T15:35:03.708Z,42.30
2019-04-19T15:37:33.856Z,40.90
2019-04-19T15:40:04.191Z,42.10
2019-04-19T15:42:34.496Z,42.80
2019-04-19T15:45:04.900Z,43.70
2019-04-19T15:47:34.775Z,43.10
2019-04-19T15:50:04.075Z,43.40
2019-04-19T15:52:33.013Z,44.60
2019-04-19T15:55:02.035Z,45.70
2019-04-19T15:57:32.140Z,43.90
2019-04-19T16:00:02.445Z,43.70
2019-04-19T16:02:46.248Z,43.10
2019-04-19T16:05:34.221Z,43.00
2019-04-19T16:08:10.858Z,42.80
2019-04-19T16:10:58.424Z,42.50
2019-04-19T16:13:27.839Z,42.90
2019-04-19T16:15:58.263Z,42.90
2019-04-19T16:18:28.514Z,42.50
2019-04-19T16:20:59.086Z,43.60
2019-04-19T16:23:28.197Z,44.50
2019-04-19T16:25:57.235Z,44.50
2019-04-19T16:28:27.378Z,44.90
2019-04-19T16:30:56.747Z,44.80
2019-04-19T16:33:25.751Z,44.60
2019-04-19T16:35:54.653Z,44.50
2019-04-19T16:38:24.236Z,44.20
2019-04-19T16:40:54.695Z,42.90
2019-04-19T16:43:23.922Z,44.10
2019-04-19T16:46:03.212Z,43.50
2019-04-19T16:48:24.306Z,44.40
2019-04-19T16:50:54.517Z,45.00
2019-04-19T16:53:23.986Z,44.80
2019-04-19T16:55:53.900Z,44.80
2019-04-19T16:58:24.326Z,44.10
2019-04-19T17:00:54.571Z,44.70
2019-04-19T17:03:23.606Z,44.80
2019-04-19T17:05:55.415Z,44.70
2019-04-19T17:08:23.062Z,45.30
2019-04-19T17:10:51.837Z,45.30
2019-04-19T17:13:20.814Z,45.80
2019-04-19T17:16:05.069Z,46.60
2019-04-19T17:18:45.780Z,47.90
2019-04-19T17:21:16.014Z,49.40
2019-04-19T17:23:45.036Z,50.60
2019-04-19T17:26:15.018Z,51.00
2019-04-19T17:28:44.329Z,51.20
2019-04-19T17:31:14.121Z,50.20
2019-04-19T17:33:44.205Z,51.60
2019-04-19T17:36:14.291Z,52.00
2019-04-19T17:38:46.860Z,52.20
2019-04-19T17:41:14.545Z,51.90
2019-04-19T17:43:43.794Z,51.40
2019-04-19T17:46:12.725Z,51.50
2019-04-19T17:48:41.669Z,51.50
2019-04-19T17:51:11.592Z,52.00
2019-04-19T17:53:45.833Z,52.30
2019-04-19T17:56:11.299Z,52.30
2019-04-19T17:58:40.391Z,52.80
2019-04-19T18:01:10.421Z,53.10
2019-04-19T18:03:40.699Z,53.40
2019-04-19T18:06:10.089Z,53.40
2019-04-19T18:08:39.840Z,53.80
2019-04-19T18:11:09.981Z,54.80
2019-04-19T18:13:41.373Z,54.80
2019-04-19T18:16:10.493Z,55.40
2019-04-19T18:18:45.712Z,55.40
2019-04-19T18:21:10.410Z,55.50
2019-04-19T18:23:46.342Z,56.30
2019-04-19T18:26:18.137Z,59.80
2019-04-19T18:28:44.149Z,57.20
2019-04-19T18:31:12.830Z,57.60
2019-04-19T18:34:01.338Z,57.90
2019-04-19T18:36:25.713Z,57.90
2019-04-19T18:38:54.029Z,60.20
2019-04-19T18:41:23.195Z,59.60
2019-04-19T18:44:05.929Z,61.10
2019-04-19T18:46:23.022Z,64.30
2019-04-19T18:48:52.037Z,65.40
2019-04-19T18:51:34.156Z,64.20
2019-04-19T18:54:05.862Z,66.70
2019-04-19T18:56:25.451Z,68.30
2019-04-19T18:58:54.238Z,66.10
2019-04-19T19:01:31.055Z,67.10
2019-04-19T19:03:54.084Z,68.50
2019-04-19T19:06:30.491Z,69.00
2019-04-19T19:09:01.871Z,70.20
2019-04-19T19:11:26.127Z,72.60
2019-04-19T19:13:55.418Z,73.50
2019-04-19T19:16:26.038Z,74.70
2019-04-19T19:18:58.080Z,75.30
2019-04-19T19:21:32.903Z,75.10
2019-04-19T19:24:18.639Z,75.30
2019-04-19T19:26:34.528Z,75.10
2019-04-19T19:28:58.299Z,75.60
2019-04-19T19:31:27.337Z,75.50
2019-04-19T19:33:58.031Z,76.10
2019-04-19T19:36:34.235Z,76.40
2019-04-19T19:39:08.545Z,76.90
2019-04-19T19:42:21.838Z,76.90
2019-04-19T19:44:13.353Z,77.10
2019-04-19T19:47:01.839Z,77.30
2019-04-19T19:49:36.687Z,78.40
2019-04-19T19:51:49.503Z,78.20
2019-04-19T19:57:03.067Z,78.20
2019-04-19T19:59:22.764Z,81.40
2019-04-19T20:01:54.913Z,81.70
2019-04-19T20:04:13.201Z,83.30
2019-04-19T20:06:51.944Z,83.90
2019-04-19T20:09:16.946Z,86.00
2019-04-19T20:11:45.724Z,86.70
2019-04-19T20:14:19.431Z,87.90
2019-04-19T20:16:45.527Z,89.70
2019-04-19T20:19:17.326Z,90.20
2019-04-19T20:21:53.022Z,91.20
2019-04-19T20:24:31.978Z,91.10
2019-04-19T20:27:01.743Z,91.80
2019-04-19T20:29:23.950Z,91.60
2019-04-19T20:31:50.395Z,91.60
2019-04-19T20:34:24.618Z,91.80
2019-04-19T20:36:51.372Z,92.10
2019-04-19T20:39:27.154Z,92.80
2019-04-19T20:41:54.424Z,93.70
2019-04-19T20:44:39.235Z,94.20
2019-04-19T20:46:53.011Z,95.00
2019-04-19T20:49:23.485Z,96.00
2019-04-19T20:52:04.390Z,97.00
2019-04-19T20:55:07.340Z,98.30
2019-04-19T20:57:29.934Z,99.00
2019-04-19T20:59:50.248Z,99.30
2019-04-19T21:02:20.449Z,99.70
2019-04-19T21:04:50.242Z,99.70
2019-04-19T21:07:18.044Z,99.90
2019-04-19T21:09:45.509Z,99.90
2019-04-19T21:12:16.944Z,99.90
2019-04-19T21:14:46.996Z,99.90
2019-04-19T21:17:16.880Z,99.90
2019-04-19T21:19:48.703Z,99.90
2019-04-19T21:22:23.715Z,99.90
2019-04-19T21:25:02.005Z,99.90
2019-04-19T21:27:24.791Z,99.90
2019-04-19T21:29:49.948Z,99.90
2019-04-19T21:32:24.309Z,99.90
2019-04-19T21:34:50.156Z,99.90
2019-04-19T21:37:23.278Z,99.90
2019-04-19T21:39:51.898Z,99.90
2019-04-19T21:42:22.709Z,99.90
2019-04-19T21:44:56.707Z,99.90
2019-04-19T21:47:24.628Z,99.90
2019-04-19T21:49:57.061Z,99.90
2019-04-19T21:52:27.245Z,99.90
2019-04-19T21:55:10.283Z,99.90
2019-04-19T21:57:31.853Z,99.90
2019-04-19T21:59:56.580Z,99.90
2019-04-19T22:02:34.451Z,99.90
2019-04-19T22:04:59.106Z,99.90
2019-04-19T22:07:32.980Z,99.90
2019-04-19T22:10:00.641Z,99.90
2019-04-19T22:12:30.366Z,99.90
2019-04-19T22:15:04.788Z,99.90
2019-04-19T22:17:30.215Z,99.90
2019-04-19T22:20:04.421Z,99.90
2019-04-19T22:22:32.123Z,99.90
2019-04-19T22:25:07.307Z,99.90
2019-04-19T22:27:31.665Z,99.90
2019-04-19T22:30:00.590Z,99.90
2019-04-19T22:32:29.454Z,99.90
2019-04-19T22:35:01.885Z,99.90
2019-04-19T22:37:32.313Z,99.90
2019-04-19T22:40:00.644Z,99.90
2019-04-19T22:42:31.873Z,99.90
2019-04-19T22:45:00.765Z,99.90
2019-04-19T22:47:32.431Z,99.90
2019-04-19T22:50:00.421Z,99.90
2019-04-19T22:52:29.281Z,99.90
2019-04-19T22:55:06.305Z,99.90
2019-04-19T22:57:37.865Z,99.90
2019-04-19T23:00:01.512Z,99.90
2019-04-19T23:02:50.237Z,99.90
2019-04-19T23:05:27.014Z,99.90
2019-04-19T23:07:55.735Z,99.90
2019-04-19T23:10:24.472Z,99.90
2019-04-19T23:12:55.587Z,99.90
2019-04-19T23:15:29.491Z,99.90
2019-04-19T23:17:56.407Z,99.90
2019-04-19T23:20:29.267Z,99.90
2019-04-19T23:22:57.460Z,99.90
2019-04-19T23:25:33.651Z,99.90
2019-04-19T23:28:09.336Z,99.90
2019-04-19T23:30:30.787Z,99.90
2019-04-19T23:33:05.843Z,99.90
2019-04-19T23:35:33.735Z,99.90
2019-04-19T23:37:59.473Z,99.90
2019-04-19T23:40:33.596Z,99.90
2019-04-19T23:43:00.221Z,99.90
2019-04-19T23:45:32.980Z,99.90
2019-04-19T23:48:00.399Z,99.90
2019-04-19T23:50:33.675Z,99.90
2019-04-19T23:53:02.504Z,99.90
2019-04-19T23:55:30.637Z,99.90
2019-04-19T23:58:01.166Z,99.90
